createdAt,value
2022-08-25T00:01:10.754Z,20.50
2022-08-25T00:03:39.589Z,20.50
2022-08-25T00:06:09.428Z,20.50
2022-08-25T00:08:38.115Z,20.50
2022-08-25T00:11:06.637Z,20.50
2022-08-25T00:13:33.812Z,20.50
2022-08-25T00:16:01.004Z,20.50
2022-08-25T00:18:27.969Z,20.40
2022-08-25T00:20:54.894Z,20.40
2022-08-25T00:23:22.038Z,20.40
2022-08-25T00:25:48.994Z,20.40
2022-08-25T00:28:16.970Z,20.40
2022-08-25T00:30:44.397Z,20.30
2022-08-25T00:33:11.479Z,20.30
2022-08-25T00:35:38.603Z,20.30
2022-08-25T00:38:05.796Z,20.20
2022-08-25T00:40:33.222Z,20.30
2022-08-25T00:43:00.638Z,20.30
2022-08-25T00:45:27.646Z,20.30
2022-08-25T00:47:56.730Z,20.20
2022-08-25T00:50:28.282Z,20.20
2022-08-25T00:52:56.157Z,20.10
2022-08-25T00:55:29.480Z,20.10
2022-08-25T00:57:58.662Z,20.10
2022-08-25T01:00:29.585Z,20.10
2022-08-25T01:02:58.071Z,20.10
2022-08-25T01:05:25.666Z,20.10
2022-08-25T01:07:52.763Z,20.10
2022-08-25T01:10:26.104Z,20.10
2022-08-25T01:12:53.193Z,20.10
2022-08-25T01:15:21.793Z,20.20
2022-08-25T01:17:50.655Z,20.20
2022-08-25T01:20:19.754Z,20.20
2022-08-25T01:22:47.949Z,20.30
2022-08-25T01:25:31.332Z,20.30
2022-08-25T01:27:58.323Z,20.30
2022-08-25T01:30:25.679Z,20.30
2022-08-25T01:32:52.606Z,20.40
2022-08-25T01:35:19.692Z,20.40
2022-08-25T01:37:46.657Z,20.40
2022-08-25T01:40:13.678Z,20.50
2022-08-25T01:43:08.098Z,20.60
2022-08-25T01:45:35.221Z,20.60
2022-08-25T01:48:02.649Z,20.50
2022-08-25T01:50:29.607Z,20.40
2022-08-25T01:53:18.443Z,20.40
2022-08-25T01:56:02.705Z,20.50
2022-08-25T01:58:32.993Z,20.50
2022-08-25T02:01:01.787Z,20.60
2022-08-25T02:03:29.352Z,20.60
2022-08-25T02:05:56.935Z,20.50
2022-08-25T02:08:24.164Z,20.40
2022-08-25T02:10:52.090Z,20.40
2022-08-25T02:13:20.178Z,20.40
2022-08-25T02:15:54.801Z,20.40
2022-08-25T02:18:21.798Z,20.40
2022-08-25T02:20:49.007Z,20.50
2022-08-25T02:23:16.003Z,20.50
2022-08-25T02:25:43.162Z,20.50
2022-08-25T02:28:10.827Z,20.60
2022-08-25T02:30:38.406Z,20.50
2022-08-25T02:33:05.537Z,20.60
2022-08-25T02:35:32.563Z,20.60
2022-08-25T02:37:59.584Z,20.70
2022-08-25T02:40:26.738Z,20.80
2022-08-25T02:42:53.890Z,20.80
2022-08-25T02:45:20.940Z,20.90
2022-08-25T02:47:47.917Z,20.80
2022-08-25T02:50:14.870Z,20.90
2022-08-25T02:52:41.897Z,20.90
2022-08-25T02:55:10.255Z,20.90
2022-08-25T02:57:37.167Z,21.00
2022-08-25T03:00:04.995Z,21.00
2022-08-25T03:02:32.475Z,21.00
2022-08-25T03:04:59.480Z,21.00
2022-08-25T03:07:26.491Z,21.10
2022-08-25T03:09:54.808Z,21.10
2022-08-25T03:12:22.636Z,21.10
2022-08-25T03:14:49.558Z,21.00
2022-08-25T03:17:16.595Z,20.90
2022-08-25T03:19:43.562Z,21.00
2022-08-25T03:22:10.839Z,21.00
2022-08-25T03:24:37.814Z,21.00
2022-08-25T03:27:05.518Z,21.00
2022-08-25T03:29:32.911Z,21.10
2022-08-25T03:32:00.392Z,21.10
2022-08-25T03:34:28.729Z,21.10
2022-08-25T03:36:56.025Z,21.10
2022-08-25T03:39:24.650Z,21.10
2022-08-25T03:41:52.323Z,21.10
2022-08-25T03:44:19.625Z,21.10
2022-08-25T03:46:49.095Z,21.10
2022-08-25T03:49:17.027Z,21.00
2022-08-25T03:51:48.325Z,21.00
2022-08-25T03:54:20.829Z,21.00
2022-08-25T03:56:47.882Z,20.90
2022-08-25T03:59:15.043Z,20.90
2022-08-25T04:01:43.061Z,20.90
2022-08-25T04:04:10.259Z,20.90
2022-08-25T04:06:38.443Z,21.00
2022-08-25T04:09:05.456Z,21.00
2022-08-25T04:11:32.410Z,21.00
2022-08-25T04:14:01.122Z,21.00
2022-08-25T04:16:32.465Z,21.10
2022-08-25T04:19:00.672Z,21.10
2022-08-25T04:21:27.673Z,21.10
2022-08-25T04:23:55.335Z,21.10
2022-08-25T04:26:23.159Z,21.10
2022-08-25T04:28:50.123Z,21.00
2022-08-25T04:31:17.760Z,21.00
2022-08-25T04:33:45.001Z,21.00
2022-08-25T04:36:12.508Z,21.00
2022-08-25T04:38:40.519Z,21.00
2022-08-25T04:41:07.846Z,20.90
2022-08-25T04:43:35.014Z,20.80
2022-08-25T04:46:06.832Z,20.80
2022-08-25T04:48:34.272Z,20.70
2022-08-25T04:51:08.281Z,20.60
2022-08-25T04:53:35.363Z,20.60
2022-08-25T04:56:03.942Z,20.60
2022-08-25T04:58:31.104Z,20.60
2022-08-25T05:01:08.344Z,20.60
2022-08-25T05:03:35.579Z,20.50
2022-08-25T05:06:02.888Z,20.50
2022-08-25T05:08:29.815Z,20.50
2022-08-25T05:10:56.922Z,20.30
2022-08-25T05:13:24.794Z,20.20
2022-08-25T05:15:57.462Z,20.20
2022-08-25T05:18:28.663Z,20.20
2022-08-25T05:20:56.129Z,20.30
2022-08-25T05:23:24.071Z,20.30
2022-08-25T05:25:51.750Z,20.20
2022-08-25T05:28:19.700Z,20.30
2022-08-25T05:30:49.580Z,20.30
2022-08-25T05:33:17.119Z,20.30
2022-08-25T05:35:44.074Z,20.40
2022-08-25T05:38:15.403Z,20.40
2022-08-25T05:40:42.746Z,20.40
2022-08-25T05:43:10.422Z,20.40
2022-08-25T05:45:37.486Z,20.30
2022-08-25T05:48:04.745Z,20.40
2022-08-25T05:50:31.824Z,20.40
2022-08-25T05:52:58.890Z,20.40
2022-08-25T05:55:25.791Z,20.40
2022-08-25T05:57:52.785Z,20.40
2022-08-25T06:00:19.912Z,20.40
2022-08-25T06:02:49.607Z,20.40
2022-08-25T06:05:18.438Z,20.50
2022-08-25T06:07:46.742Z,20.40
2022-08-25T06:10:13.841Z,20.40
2022-08-25T06:12:44.471Z,20.30
2022-08-25T06:15:17.066Z,20.30
2022-08-25T06:17:44.479Z,20.10
2022-08-25T06:20:16.841Z,20.10
2022-08-25T06:22:44.015Z,20.10
2022-08-25T06:25:11.924Z,20.20
2022-08-25T06:27:39.086Z,20.20
2022-08-25T06:30:08.242Z,20.20
2022-08-25T06:32:36.176Z,20.20
2022-08-25T06:35:04.276Z,20.20
2022-08-25T06:37:31.236Z,20.20
2022-08-25T06:39:58.501Z,20.20
2022-08-25T06:42:25.497Z,20.30
2022-08-25T06:44:52.439Z,20.20
2022-08-25T06:47:19.628Z,20.20
2022-08-25T06:49:46.978Z,20.20
2022-08-25T06:52:14.234Z,20.20
2022-08-25T06:54:41.210Z,20.20
2022-08-25T06:57:08.763Z,20.20
2022-08-25T06:59:36.498Z,20.20
2022-08-25T07:02:08.750Z,20.20
2022-08-25T07:04:36.544Z,20.10
2022-08-25T07:07:04.265Z,20.00
2022-08-25T07:09:35.223Z,20.10
2022-08-25T07:12:05.828Z,20.10
2022-08-25T07:14:32.744Z,20.10
2022-08-25T07:17:00.912Z,20.20
2022-08-25T07:19:28.111Z,20.20
2022-08-25T07:21:55.075Z,20.20
2022-08-25T07:24:22.174Z,20.20
2022-08-25T07:26:49.356Z,20.20
2022-08-25T07:29:26.559Z,20.20
2022-08-25T07:32:01.495Z,20.20
2022-08-25T07:34:52.521Z,20.20
2022-08-25T07:37:38.439Z,20.20
2022-08-25T07:40:08.742Z,20.20
2022-08-25T07:42:36.130Z,20.30
2022-08-25T07:45:07.223Z,20.30
2022-08-25T07:47:34.917Z,20.30
2022-08-25T07:50:02.028Z,20.30
2022-08-25T07:52:32.777Z,20.30
2022-08-25T07:55:00.661Z,20.30
2022-08-25T07:57:28.452Z,20.40
2022-08-25T07:59:56.239Z,20.40
2022-08-25T08:02:23.201Z,20.40
2022-08-25T08:04:52.338Z,20.40
2022-08-25T08:07:20.867Z,20.40
2022-08-25T08:09:56.015Z,20.40
2022-08-25T08:12:27.684Z,20.40
2022-08-25T08:14:54.815Z,20.40
2022-08-25T08:17:21.812Z,20.40
2022-08-25T08:19:48.753Z,20.40
2022-08-25T08:22:15.780Z,20.40
2022-08-25T08:24:54.707Z,20.50
2022-08-25T08:27:23.262Z,20.50
2022-08-25T08:29:50.291Z,20.50
2022-08-25T08:32:18.589Z,20.50
2022-08-25T08:34:47.083Z,20.60
2022-08-25T08:37:18.635Z,20.60
2022-08-25T08:39:48.342Z,20.60
2022-08-25T08:42:47.055Z,20.60
2022-08-25T08:45:24.854Z,20.70
2022-08-25T08:48:34.840Z,20.70
2022-08-25T08:51:16.759Z,20.70
2022-08-25T08:53:50.831Z,20.70
2022-08-25T08:56:25.796Z,20.60
2022-08-25T08:59:05.174Z,20.60
2022-08-25T09:01:42.798Z,20.70
2022-08-25T09:04:16.546Z,20.60
2022-08-25T09:06:48.292Z,20.60
2022-08-25T09:09:22.149Z,20.60
2022-08-25T09:12:13.561Z,20.60
2022-08-25T09:15:01.857Z,20.70
2022-08-25T09:17:43.212Z,20.80
2022-08-25T09:20:36.895Z,20.80
2022-08-25T09:23:20.495Z,20.70
2022-08-25T09:26:15.134Z,20.70
2022-08-25T09:29:02.258Z,20.70
2022-08-25T09:31:40.536Z,20.70
2022-08-25T09:34:12.283Z,20.60
2022-08-25T09:36:39.651Z,20.50
2022-08-25T09:39:06.894Z,20.50
2022-08-25T09:41:47.530Z,20.50
2022-08-25T09:44:24.243Z,20.50
2022-08-25T09:47:18.723Z,20.50
2022-08-25T09:49:50.790Z,20.40
2022-08-25T09:52:23.727Z,20.50
2022-08-25T09:54:53.116Z,20.50
2022-08-25T09:57:34.062Z,20.40
2022-08-25T10:00:31.902Z,20.50
2022-08-25T10:03:06.504Z,20.40
2022-08-25T10:05:38.579Z,20.50
2022-08-25T10:08:31.470Z,20.50
2022-08-25T10:10:59.565Z,20.70
2022-08-25T10:13:37.711Z,20.70
2022-08-25T10:16:20.600Z,20.70
2022-08-25T10:19:26.751Z,20.60
2022-08-25T10:22:31.836Z,20.60
2022-08-25T10:25:04.741Z,20.50
2022-08-25T10:27:40.863Z,20.50
2022-08-25T10:30:23.020Z,20.60
2022-08-25T10:33:19.069Z,20.60
2022-08-25T10:35:57.677Z,20.70
2022-08-25T10:38:38.333Z,20.70
2022-08-25T10:41:21.067Z,20.80
2022-08-25T10:43:50.102Z,20.80
2022-08-25T10:46:33.798Z,20.70
2022-08-25T10:49:19.636Z,20.60
2022-08-25T10:51:51.153Z,20.60
2022-08-25T10:54:56.038Z,20.60
2022-08-25T10:57:36.841Z,20.80
2022-08-25T11:00:13.473Z,20.80
2022-08-25T11:03:22.039Z,20.90
2022-08-25T11:06:02.156Z,20.90
2022-08-25T11:08:32.545Z,21.00
2022-08-25T11:11:02.803Z,20.90
2022-08-25T11:13:37.948Z,21.00
2022-08-25T11:16:18.719Z,21.10
2022-08-25T11:19:07.300Z,21.10
2022-08-25T11:21:40.160Z,21.20
2022-08-25T11:24:30.444Z,21.30
2022-08-25T11:26:57.682Z,21.30
2022-08-25T11:29:27.261Z,21.30
2022-08-25T11:31:54.331Z,21.30
2022-08-25T11:34:21.878Z,21.40
2022-08-25T11:36:55.145Z,21.50
2022-08-25T11:39:55.015Z,21.60
2022-08-25T11:42:47.524Z,21.60
2022-08-25T11:45:42.548Z,21.70
2022-08-25T11:48:25.562Z,21.60
2022-08-25T11:50:58.123Z,21.60
2022-08-25T11:53:36.261Z,21.60
2022-08-25T11:56:09.887Z,21.70
2022-08-25T11:58:41.344Z,21.80
2022-08-25T12:01:29.639Z,22.00
2022-08-25T12:04:13.389Z,22.20
2022-08-25T12:07:07.295Z,22.30
2022-08-25T12:09:35.150Z,22.30
2022-08-25T12:12:28.127Z,22.30
2022-08-25T12:14:55.128Z,22.30
2022-08-25T12:17:25.138Z,22.40
2022-08-25T12:19:55.989Z,22.40
2022-08-25T12:22:23.029Z,22.40
2022-08-25T12:24:56.236Z,22.50
2022-08-25T12:28:01.683Z,22.70
2022-08-25T12:30:43.157Z,23.00
2022-08-25T12:33:10.470Z,23.30
2022-08-25T12:35:51.763Z,23.30
2022-08-25T12:38:29.125Z,23.40
2022-08-25T12:41:07.586Z,23.50
2022-08-25T12:43:42.328Z,23.70
2022-08-25T12:46:27.747Z,23.70
2022-08-25T12:48:57.865Z,23.70
2022-08-25T12:51:41.182Z,23.60
2022-08-25T12:54:47.546Z,23.70
2022-08-25T12:57:42.656Z,23.80
2022-08-25T13:02:58.662Z,23.90
2022-08-25T13:05:50.175Z,23.80
2022-08-25T13:08:47.030Z,23.60
2022-08-25T13:11:20.636Z,23.70
2022-08-25T13:14:29.032Z,23.90
2022-08-25T13:16:57.580Z,23.60
2022-08-25T13:19:25.746Z,23.60
2022-08-25T13:21:54.709Z,23.70
2022-08-25T13:24:27.039Z,23.70
2022-08-25T13:27:05.557Z,23.70
2022-08-25T13:29:37.691Z,23.60
2022-08-25T13:32:12.791Z,23.70
2022-08-25T13:34:42.638Z,23.80
2022-08-25T13:37:31.211Z,24.00
2022-08-25T13:40:19.529Z,24.00
2022-08-25T13:42:54.392Z,24.00
2022-08-25T13:45:31.685Z,24.00
2022-08-25T13:47:59.141Z,24.00
2022-08-25T13:50:26.867Z,24.00
2022-08-25T13:53:04.213Z,24.10
2022-08-25T13:55:51.653Z,23.80
2022-08-25T13:58:39.018Z,23.70
2022-08-25T14:01:22.331Z,23.70
2022-08-25T14:04:23.241Z,23.80
2022-08-25T14:07:34.176Z,24.00
2022-08-25T14:10:06.128Z,23.90
2022-08-25T14:12:35.502Z,23.70
2022-08-25T14:15:10.589Z,23.70
2022-08-25T14:17:40.071Z,23.90
2022-08-25T14:20:23.763Z,24.00
2022-08-25T14:22:54.975Z,23.90
2022-08-25T14:25:25.599Z,23.80
2022-08-25T14:28:25.566Z,23.70
2022-08-25T14:30:51.898Z,23.70
2022-08-25T14:33:20.201Z,23.80
2022-08-25T14:35:49.086Z,23.90
2022-08-25T14:38:16.140Z,23.90
2022-08-25T14:40:44.739Z,24.00
2022-08-25T14:43:12.316Z,24.00
2022-08-25T14:45:41.280Z,23.90
2022-08-25T14:48:10.303Z,23.80
2022-08-25T14:50:38.125Z,23.80
2022-08-25T14:53:08.388Z,23.70
2022-08-25T14:55:35.519Z,23.70
2022-08-25T14:58:02.483Z,23.50
2022-08-25T15:00:29.592Z,23.30
2022-08-25T15:02:56.600Z,23.20
2022-08-25T15:05:28.495Z,23.30
2022-08-25T15:08:14.101Z,23.50
2022-08-25T15:10:43.375Z,23.60
2022-08-25T15:13:10.810Z,23.60
2022-08-25T15:15:39.434Z,23.50
2022-08-25T15:18:20.362Z,23.50
2022-08-25T15:20:47.535Z,23.50
2022-08-25T15:23:18.667Z,23.40
2022-08-25T15:25:46.531Z,23.50
2022-08-25T15:28:13.686Z,23.40
2022-08-25T15:30:45.699Z,23.50
2022-08-25T15:33:13.929Z,23.40
2022-08-25T15:35:41.666Z,23.40
2022-08-25T15:38:10.487Z,23.50
2022-08-25T15:40:39.123Z,23.40
2022-08-25T15:43:06.309Z,23.40
2022-08-25T15:45:36.310Z,23.40
2022-08-25T15:48:06.892Z,23.30
2022-08-25T15:50:36.576Z,23.10
2022-08-25T15:53:03.706Z,23.00
2022-08-25T15:55:34.047Z,23.00
2022-08-25T15:58:01.530Z,22.90
2022-08-25T16:00:31.669Z,22.80
2022-08-25T16:02:59.064Z,22.50
2022-08-25T16:05:27.021Z,22.50
2022-08-25T16:07:54.239Z,22.40
2022-08-25T16:10:21.216Z,22.50
2022-08-25T16:12:49.091Z,22.60
2022-08-25T16:15:16.229Z,22.60
2022-08-25T16:17:45.949Z,22.60
2022-08-25T16:20:17.278Z,22.70
2022-08-25T16:22:45.513Z,22.60
2022-08-25T16:25:12.675Z,22.60
2022-08-25T16:27:39.590Z,22.50
2022-08-25T16:30:14.958Z,22.50
2022-08-25T16:32:45.082Z,22.50
2022-08-25T16:35:13.211Z,22.30
2022-08-25T16:37:40.313Z,22.30
2022-08-25T16:40:08.371Z,22.40
2022-08-25T16:42:35.691Z,22.40
2022-08-25T16:45:02.624Z,22.40
2022-08-25T16:47:37.155Z,22.20
2022-08-25T16:50:06.386Z,22.10
2022-08-25T16:52:52.177Z,22.10
2022-08-25T16:55:19.470Z,22.00
2022-08-25T16:57:48.905Z,21.80
2022-08-25T17:00:22.141Z,21.80
2022-08-25T17:02:51.589Z,21.70
2022-08-25T17:05:18.615Z,21.70
2022-08-25T17:08:05.949Z,21.60
2022-08-25T17:10:37.677Z,21.50
2022-08-25T17:13:04.675Z,21.50
2022-08-25T17:15:31.814Z,21.30
2022-08-25T17:17:58.787Z,21.30
2022-08-25T17:20:25.758Z,21.40
2022-08-25T17:22:54.878Z,21.40
2022-08-25T17:25:21.842Z,21.50
2022-08-25T17:27:48.810Z,21.40
2022-08-25T17:30:15.858Z,21.30
2022-08-25T17:32:43.866Z,21.30
2022-08-25T17:35:14.039Z,21.30
2022-08-25T17:37:41.650Z,21.30
2022-08-25T17:40:11.124Z,21.30
2022-08-25T17:42:38.240Z,21.30
2022-08-25T17:45:05.931Z,21.30
2022-08-25T17:47:34.111Z,21.20
2022-08-25T17:50:01.219Z,20.90
2022-08-25T17:52:29.758Z,20.70
2022-08-25T17:54:58.829Z,20.50
2022-08-25T17:57:25.947Z,20.60
2022-08-25T17:59:54.136Z,20.60
2022-08-25T18:02:21.391Z,20.60
2022-08-25T18:04:48.895Z,20.60
2022-08-25T18:07:15.864Z,20.70
2022-08-25T18:09:44.177Z,20.60
2022-08-25T18:12:12.633Z,20.40
2022-08-25T18:14:39.551Z,20.30
2022-08-25T18:17:06.503Z,20.20
2022-08-25T18:19:33.570Z,20.20
2022-08-25T18:22:04.371Z,20.10
2022-08-25T18:24:31.394Z,20.10
2022-08-25T18:26:58.985Z,20.10
2022-08-25T18:29:26.251Z,20.00
2022-08-25T18:31:58.327Z,19.90
2022-08-25T18:34:27.380Z,20.00
2022-08-25T18:36:58.832Z,20.00
2022-08-25T18:39:46.901Z,20.00
2022-08-25T18:42:14.183Z,20.00
2022-08-25T18:44:46.495Z,19.90
2022-08-25T18:47:13.643Z,19.90
2022-08-25T18:49:40.821Z,19.90
2022-08-25T18:52:07.825Z,19.90
2022-08-25T18:54:35.980Z,19.90
2022-08-25T18:57:03.343Z,19.80
2022-08-25T18:59:30.386Z,19.90
2022-08-25T19:01:57.588Z,19.80
2022-08-25T19:04:31.293Z,19.80
2022-08-25T19:06:59.549Z,19.80
2022-08-25T19:09:26.461Z,19.80
2022-08-25T19:11:54.727Z,19.70
2022-08-25T19:14:21.850Z,19.80
2022-08-25T19:16:48.865Z,19.70
2022-08-25T19:19:15.846Z,19.60
2022-08-25T19:21:42.826Z,19.60
2022-08-25T19:24:11.344Z,19.60
2022-08-25T19:26:38.552Z,19.50
2022-08-25T19:29:09.059Z,19.40
2022-08-25T19:31:36.403Z,19.50
2022-08-25T19:34:03.597Z,19.60
2022-08-25T19:36:30.589Z,19.60
2022-08-25T19:39:00.309Z,19.60
2022-08-25T19:41:28.310Z,19.60
2022-08-25T19:43:57.658Z,19.60
2022-08-25T19:46:32.757Z,19.60
2022-08-25T19:49:08.952Z,19.50
2022-08-25T19:51:41.036Z,19.50
2022-08-25T19:54:15.622Z,19.40
2022-08-25T19:56:53.728Z,19.40
2022-08-25T19:59:34.107Z,19.40
2022-08-25T20:02:04.091Z,19.50
2022-08-25T20:04:31.049Z,19.40
2022-08-25T20:06:58.137Z,19.40
2022-08-25T20:09:39.444Z,19.40
2022-08-25T20:12:08.611Z,19.20
2022-08-25T20:14:36.658Z,19.20
2022-08-25T20:17:04.170Z,19.30
2022-08-25T20:19:41.803Z,19.30
2022-08-25T20:22:11.224Z,19.40
2022-08-25T20:24:55.852Z,19.30
2022-08-25T20:27:27.082Z,19.30
2022-08-25T20:29:54.131Z,19.30
2022-08-25T20:32:21.186Z,19.30
2022-08-25T20:34:48.694Z,19.30
2022-08-25T20:37:16.973Z,19.30
2022-08-25T20:39:46.474Z,19.30
2022-08-25T20:42:13.987Z,19.30
2022-08-25T20:44:42.180Z,19.20
2022-08-25T20:47:10.498Z,19.20
2022-08-25T20:49:39.311Z,19.30
2022-08-25T20:52:06.406Z,19.30
2022-08-25T20:54:33.646Z,19.30
2022-08-25T20:57:00.642Z,19.30
2022-08-25T20:59:29.582Z,19.20
2022-08-25T21:01:56.815Z,19.20
2022-08-25T21:04:25.162Z,19.00
2022-08-25T21:06:52.150Z,18.90
2022-08-25T21:09:21.359Z,18.90
2022-08-25T21:11:48.718Z,18.90
2022-08-25T21:14:16.826Z,18.90
2022-08-25T21:16:47.015Z,18.90
2022-08-25T21:19:18.166Z,18.90
2022-08-25T21:21:54.115Z,18.80
2022-08-25T21:24:27.104Z,18.70
2022-08-25T21:26:54.933Z,18.70
2022-08-25T21:29:24.075Z,18.60
2022-08-25T21:31:51.261Z,18.60
2022-08-25T21:34:18.600Z,18.50
2022-08-25T21:36:45.681Z,18.40
2022-08-25T21:39:12.955Z,18.40
2022-08-25T21:41:41.409Z,18.40
2022-08-25T21:44:08.415Z,18.30
2022-08-25T21:46:35.841Z,18.30
2022-08-25T21:49:06.143Z,18.20
2022-08-25T21:51:40.660Z,18.20
2022-08-25T21:54:10.014Z,18.10
2022-08-25T21:56:38.381Z,18.10
2022-08-25T21:59:06.963Z,18.00
2022-08-25T22:01:34.040Z,18.00
2022-08-25T22:04:02.217Z,17.90
2022-08-25T22:06:29.463Z,17.90
2022-08-25T22:08:56.451Z,17.80
2022-08-25T22:11:23.464Z,17.80
2022-08-25T22:13:50.525Z,17.80
2022-08-25T22:16:19.894Z,17.70
2022-08-25T22:18:48.759Z,17.70
2022-08-25T22:21:17.632Z,17.70
2022-08-25T22:23:44.871Z,17.60
2022-08-25T22:26:15.321Z,17.60
2022-08-25T22:28:46.604Z,17.50
2022-08-25T22:31:13.784Z,17.50
2022-08-25T22:33:48.086Z,17.50
2022-08-25T22:36:16.171Z,17.40
2022-08-25T22:38:43.828Z,17.40
2022-08-25T22:41:11.031Z,17.40
2022-08-25T22:43:38.945Z,17.40
2022-08-25T22:46:06.702Z,17.30
2022-08-25T22:48:39.646Z,17.20
2022-08-25T22:51:09.427Z,17.20
2022-08-25T22:53:37.234Z,17.20
2022-08-25T22:56:04.581Z,17.20
2022-08-25T22:58:31.670Z,17.10
2022-08-25T23:00:58.894Z,17.10
2022-08-25T23:03:27.054Z,17.00
2022-08-25T23:05:54.423Z,17.00
2022-08-25T23:08:38.974Z,17.00
2022-08-25T23:11:08.498Z,17.00
2022-08-25T23:13:35.499Z,17.00
2022-08-25T23:16:06.886Z,17.00
2022-08-25T23:18:43.615Z,16.90
2022-08-25T23:21:29.374Z,16.80
2022-08-25T23:24:02.359Z,16.80
2022-08-25T23:26:29.558Z,16.80
2022-08-25T23:28:56.518Z,16.70
2022-08-25T23:31:23.674Z,16.70
2022-08-25T23:33:51.491Z,16.70
2022-08-25T23:36:19.563Z,16.70
2022-08-25T23:38:51.606Z,16.60
2022-08-25T23:41:21.553Z,16.50
2022-08-25T23:43:49.716Z,16.40
2022-08-25T23:46:18.215Z,16.40
2022-08-25T23:48:45.149Z,16.40
2022-08-25T23:51:12.667Z,16.40
2022-08-25T23:53:39.594Z,16.30
2022-08-25T23:56:06.562Z,16.30
2022-08-25T23:58:33.518Z,16.30
